sensor_id;sensor_type;location;lat;lon;timestamp;P1;durP1;ratioP1;P2;durP2;ratioP2
8887;SDS011;4480;52.370;9.748;2022-10-22T00:01:36;7.43;;;6.60;;
8887;SDS011;4480;52.370;9.748;2022-10-22T00:04:04;12.57;;;8.57;;
8887;SDS011;4480;52.370;9.748;2022-10-22T00:06:31;10.60;;;8.10;;
8887;SDS011;4480;52.370;9.748;2022-10-22T00:08:58;9.63;;;8.07;;
8887;SDS011;4480;52.370;9.748;2022-10-22T00:11:25;10.70;;;7.83;;
8887;SDS011;4480;52.370;9.748;2022-10-22T00:13:51;10.13;;;7.93;;
8887;SDS011;4480;52.370;9.748;2022-10-22T00:16:18;10.77;;;8.63;;
8887;SDS011;4480;52.370;9.748;2022-10-22T00:18:45;9.37;;;8.33;;
8887;SDS011;4480;52.370;9.748;2022-10-22T00:21:13;9.00;;;8.10;;
8887;SDS011;4480;52.370;9.748;2022-10-22T00:23:40;13.10;;;8.80;;
8887;SDS011;4480;52.370;9.748;2022-10-22T00:26:07;10.90;;;8.17;;
8887;SDS011;4480;52.370;9.748;2022-10-22T00:28:34;8.03;;;7.23;;
8887;SDS011;4480;52.370;9.748;2022-10-22T00:31:01;9.80;;;7.50;;
8887;SDS011;4480;52.370;9.748;2022-10-22T00:33:28;9.47;;;8.57;;
8887;SDS011;4480;52.370;9.748;2022-10-22T00:35:55;9.17;;;8.23;;
8887;SDS011;4480;52.370;9.748;2022-10-22T00:38:23;11.10;;;9.43;;
8887;SDS011;4480;52.370;9.748;2022-10-22T00:40:50;11.63;;;8.00;;
8887;SDS011;4480;52.370;9.748;2022-10-22T00:43:18;12.30;;;8.70;;
8887;SDS011;4480;52.370;9.748;2022-10-22T00:45:45;10.53;;;8.47;;
8887;SDS011;4480;52.370;9.748;2022-10-22T00:48:13;9.53;;;8.17;;
8887;SDS011;4480;52.370;9.748;2022-10-22T00:50:42;8.60;;;7.70;;
8887;SDS011;4480;52.370;9.748;2022-10-22T00:53:13;13.10;;;9.20;;
8887;SDS011;4480;52.370;9.748;2022-10-22T00:55:44;9.67;;;7.50;;
8887;SDS011;4480;52.370;9.748;2022-10-22T00:58:13;11.53;;;8.17;;
8887;SDS011;4480;52.370;9.748;2022-10-22T01:00:41;9.40;;;7.97;;
8887;SDS011;4480;52.370;9.748;2022-10-22T01:03:07;8.60;;;7.47;;
8887;SDS011;4480;52.370;9.748;2022-10-22T01:05:38;10.73;;;7.77;;
8887;SDS011;4480;52.370;9.748;2022-10-22T01:08:08;10.27;;;8.77;;
8887;SDS011;4480;52.370;9.748;2022-10-22T01:10:48;11.60;;;8.10;;
8887;SDS011;4480;52.370;9.748;2022-10-22T01:13:21;9.57;;;8.40;;
8887;SDS011;4480;52.370;9.748;2022-10-22T01:15:59;10.03;;;8.17;;
8887;SDS011;4480;52.370;9.748;2022-10-22T01:18:35;9.57;;;8.47;;
8887;SDS011;4480;52.370;9.748;2022-10-22T01:21:08;9.13;;;7.70;;
8887;SDS011;4480;52.370;9.748;2022-10-22T01:23:49;10.77;;;7.90;;
8887;SDS011;4480;52.370;9.748;2022-10-22T01:26:35;9.83;;;7.60;;
8887;SDS011;4480;52.370;9.748;2022-10-22T01:29:19;13.10;;;7.93;;
8887;SDS011;4480;52.370;9.748;2022-10-22T01:31:50;9.67;;;8.33;;
8887;SDS011;4480;52.370;9.748;2022-10-22T01:34:20;11.03;;;9.13;;
8887;SDS011;4480;52.370;9.748;2022-10-22T01:36:48;11.17;;;9.20;;
8887;SDS011;4480;52.370;9.748;2022-10-22T01:39:16;12.40;;;9.30;;
8887;SDS011;4480;52.370;9.748;2022-10-22T01:41:44;9.20;;;8.17;;
8887;SDS011;4480;52.370;9.748;2022-10-22T01:44:26;9.57;;;8.10;;
8887;SDS011;4480;52.370;9.748;2022-10-22T01:46:56;10.70;;;8.20;;
8887;SDS011;4480;52.370;9.748;2022-10-22T01:49:34;10.60;;;7.37;;
8887;SDS011;4480;52.370;9.748;2022-10-22T01:52:13;12.50;;;9.87;;
8887;SDS011;4480;52.370;9.748;2022-10-22T01:54:48;11.87;;;8.47;;
8887;SDS011;4480;52.370;9.748;2022-10-22T01:57:22;12.03;;;9.00;;
8887;SDS011;4480;52.370;9.748;2022-10-22T02:00:00;12.20;;;8.70;;
8887;SDS011;4480;52.370;9.748;2022-10-22T02:02:32;14.13;;;8.37;;
8887;SDS011;4480;52.370;9.748;2022-10-22T02:05:06;14.67;;;9.63;;
8887;SDS011;4480;52.370;9.748;2022-10-22T02:07:38;12.83;;;10.47;;
8887;SDS011;4480;52.370;9.748;2022-10-22T02:10:08;12.10;;;9.60;;
8887;SDS011;4480;52.370;9.748;2022-10-22T02:12:37;14.37;;;9.30;;
8887;SDS011;4480;52.370;9.748;2022-10-22T02:15:07;11.70;;;9.80;;
8887;SDS011;4480;52.370;9.748;2022-10-22T02:17:35;12.33;;;9.40;;
8887;SDS011;4480;52.370;9.748;2022-10-22T02:20:05;16.63;;;8.70;;
8887;SDS011;4480;52.370;9.748;2022-10-22T02:22:35;12.67;;;8.00;;
8887;SDS011;4480;52.370;9.748;2022-10-22T02:25:02;13.40;;;8.93;;
8887;SDS011;4480;52.370;9.748;2022-10-22T02:27:30;14.33;;;9.03;;
8887;SDS011;4480;52.370;9.748;2022-10-22T02:30:02;9.63;;;8.50;;
8887;SDS011;4480;52.370;9.748;2022-10-22T02:32:33;10.63;;;8.90;;
8887;SDS011;4480;52.370;9.748;2022-10-22T02:35:04;12.37;;;9.27;;
8887;SDS011;4480;52.370;9.748;2022-10-22T02:37:35;10.13;;;8.50;;
8887;SDS011;4480;52.370;9.748;2022-10-22T02:40:03;11.27;;;9.00;;
8887;SDS011;4480;52.370;9.748;2022-10-22T02:42:31;10.80;;;8.07;;
8887;SDS011;4480;52.370;9.748;2022-10-22T02:44:59;11.60;;;9.20;;
8887;SDS011;4480;52.370;9.748;2022-10-22T02:47:26;14.10;;;8.87;;
8887;SDS011;4480;52.370;9.748;2022-10-22T02:49:54;9.50;;;8.00;;
8887;SDS011;4480;52.370;9.748;2022-10-22T02:52:21;11.03;;;8.27;;
8887;SDS011;4480;52.370;9.748;2022-10-22T02:54:47;9.07;;;8.17;;
8887;SDS011;4480;52.370;9.748;2022-10-22T02:57:14;11.67;;;8.30;;
8887;SDS011;4480;52.370;9.748;2022-10-22T02:59:41;12.20;;;8.50;;
8887;SDS011;4480;52.370;9.748;2022-10-22T03:02:08;7.70;;;6.93;;
8887;SDS011;4480;52.370;9.748;2022-10-22T03:04:34;12.57;;;9.30;;
8887;SDS011;4480;52.370;9.748;2022-10-22T03:07:02;10.13;;;7.90;;
8887;SDS011;4480;52.370;9.748;2022-10-22T03:09:29;12.93;;;8.00;;
8887;SDS011;4480;52.370;9.748;2022-10-22T03:11:56;11.17;;;8.30;;
8887;SDS011;4480;52.370;9.748;2022-10-22T03:14:22;11.60;;;8.80;;
8887;SDS011;4480;52.370;9.748;2022-10-22T03:16:49;10.83;;;8.53;;
8887;SDS011;4480;52.370;9.748;2022-10-22T03:19:16;11.60;;;8.07;;
8887;SDS011;4480;52.370;9.748;2022-10-22T03:21:43;11.30;;;8.30;;
8887;SDS011;4480;52.370;9.748;2022-10-22T03:24:15;9.87;;;8.60;;
8887;SDS011;4480;52.370;9.748;2022-10-22T03:26:45;8.80;;;7.90;;
8887;SDS011;4480;52.370;9.748;2022-10-22T03:29:14;9.90;;;8.03;;
8887;SDS011;4480;52.370;9.748;2022-10-22T03:31:42;11.13;;;9.00;;
8887;SDS011;4480;52.370;9.748;2022-10-22T03:34:09;9.10;;;7.23;;
8887;SDS011;4480;52.370;9.748;2022-10-22T03:36:37;10.20;;;7.73;;
8887;SDS011;4480;52.370;9.748;2022-10-22T03:39:05;8.73;;;7.30;;
8887;SDS011;4480;52.370;9.748;2022-10-22T03:41:34;11.90;;;7.93;;
8887;SDS011;4480;52.370;9.748;2022-10-22T03:44:02;9.40;;;7.00;;
8887;SDS011;4480;52.370;9.748;2022-10-22T03:46:29;9.73;;;8.07;;
8887;SDS011;4480;52.370;9.748;2022-10-22T03:48:56;9.50;;;8.33;;
8887;SDS011;4480;52.370;9.748;2022-10-22T03:51:25;12.50;;;7.27;;
8887;SDS011;4480;52.370;9.748;2022-10-22T03:53:51;12.03;;;8.20;;
8887;SDS011;4480;52.370;9.748;2022-10-22T03:56:18;9.93;;;7.73;;
8887;SDS011;4480;52.370;9.748;2022-10-22T03:58:46;8.23;;;7.30;;
8887;SDS011;4480;52.370;9.748;2022-10-22T04:01:13;9.43;;;8.37;;
8887;SDS011;4480;52.370;9.748;2022-10-22T04:03:40;10.73;;;7.60;;
8887;SDS011;4480;52.370;9.748;2022-10-22T04:06:07;9.33;;;7.40;;
8887;SDS011;4480;52.370;9.748;2022-10-22T04:10:23;10.70;;;8.30;;
8887;SDS011;4480;52.370;9.748;2022-10-22T04:12:49;9.43;;;7.53;;
8887;SDS011;4480;52.370;9.748;2022-10-22T04:15:16;11.20;;;7.83;;
8887;SDS011;4480;52.370;9.748;2022-10-22T04:17:43;8.53;;;6.60;;
8887;SDS011;4480;52.370;9.748;2022-10-22T04:20:10;8.40;;;7.50;;
8887;SDS011;4480;52.370;9.748;2022-10-22T04:22:37;11.20;;;7.00;;
8887;SDS011;4480;52.370;9.748;2022-10-22T04:25:04;8.83;;;6.97;;
8887;SDS011;4480;52.370;9.748;2022-10-22T04:27:32;10.20;;;7.80;;
8887;SDS011;4480;52.370;9.748;2022-10-22T04:30:00;11.50;;;8.23;;
8887;SDS011;4480;52.370;9.748;2022-10-22T04:32:27;8.53;;;7.07;;
8887;SDS011;4480;52.370;9.748;2022-10-22T04:34:54;9.00;;;7.87;;
8887;SDS011;4480;52.370;9.748;2022-10-22T04:37:20;8.93;;;7.00;;
8887;SDS011;4480;52.370;9.748;2022-10-22T04:39:47;11.90;;;8.77;;
8887;SDS011;4480;52.370;9.748;2022-10-22T04:42:14;10.17;;;7.93;;
8887;SDS011;4480;52.370;9.748;2022-10-22T04:44:42;11.93;;;8.83;;
8887;SDS011;4480;52.370;9.748;2022-10-22T04:47:09;10.23;;;8.47;;
8887;SDS011;4480;52.370;9.748;2022-10-22T04:49:36;10.20;;;8.27;;
8887;SDS011;4480;52.370;9.748;2022-10-22T04:52:02;10.33;;;8.57;;
8887;SDS011;4480;52.370;9.748;2022-10-22T04:54:29;10.67;;;9.33;;
8887;SDS011;4480;52.370;9.748;2022-10-22T04:56:56;9.97;;;8.90;;
8887;SDS011;4480;52.370;9.748;2022-10-22T04:59:23;12.90;;;8.47;;
8887;SDS011;4480;52.370;9.748;2022-10-22T05:01:51;11.83;;;7.83;;
8887;SDS011;4480;52.370;9.748;2022-10-22T05:04:17;12.00;;;7.70;;
8887;SDS011;4480;52.370;9.748;2022-10-22T05:06:44;10.83;;;8.47;;
8887;SDS011;4480;52.370;9.748;2022-10-22T05:09:12;12.67;;;8.57;;
8887;SDS011;4480;52.370;9.748;2022-10-22T05:11:40;11.80;;;8.40;;
8887;SDS011;4480;52.370;9.748;2022-10-22T05:14:10;10.77;;;8.50;;
8887;SDS011;4480;52.370;9.748;2022-10-22T05:16:37;13.13;;;8.37;;
8887;SDS011;4480;52.370;9.748;2022-10-22T05:19:06;12.93;;;7.53;;
8887;SDS011;4480;52.370;9.748;2022-10-22T05:21:33;10.67;;;7.13;;
8887;SDS011;4480;52.370;9.748;2022-10-22T05:24:00;13.30;;;8.87;;
8887;SDS011;4480;52.370;9.748;2022-10-22T05:26:28;9.73;;;8.73;;
8887;SDS011;4480;52.370;9.748;2022-10-22T05:28:55;9.73;;;7.57;;
8887;SDS011;4480;52.370;9.748;2022-10-22T05:31:22;9.20;;;7.73;;
8887;SDS011;4480;52.370;9.748;2022-10-22T05:33:48;10.43;;;8.50;;
8887;SDS011;4480;52.370;9.748;2022-10-22T05:36:17;9.90;;;8.70;;
8887;SDS011;4480;52.370;9.748;2022-10-22T05:38:45;8.03;;;7.13;;
8887;SDS011;4480;52.370;9.748;2022-10-22T05:41:14;11.63;;;8.60;;
8887;SDS011;4480;52.370;9.748;2022-10-22T05:43:42;10.90;;;8.20;;
8887;SDS011;4480;52.370;9.748;2022-10-22T05:46:09;11.77;;;7.50;;
8887;SDS011;4480;52.370;9.748;2022-10-22T05:48:38;10.90;;;7.97;;
8887;SDS011;4480;52.370;9.748;2022-10-22T05:51:05;11.30;;;8.73;;
8887;SDS011;4480;52.370;9.748;2022-10-22T05:53:35;9.80;;;8.80;;
8887;SDS011;4480;52.370;9.748;2022-10-22T05:56:04;12.13;;;9.57;;
8887;SDS011;4480;52.370;9.748;2022-10-22T05:58:33;11.53;;;9.03;;
8887;SDS011;4480;52.370;9.748;2022-10-22T06:01:00;9.47;;;8.43;;
8887;SDS011;4480;52.370;9.748;2022-10-22T06:03:27;11.80;;;10.30;;
8887;SDS011;4480;52.370;9.748;2022-10-22T06:05:55;10.87;;;8.90;;
8887;SDS011;4480;52.370;9.748;2022-10-22T06:08:22;12.77;;;9.77;;
8887;SDS011;4480;52.370;9.748;2022-10-22T06:10:50;14.73;;;9.80;;
8887;SDS011;4480;52.370;9.748;2022-10-22T06:13:17;11.27;;;8.40;;
8887;SDS011;4480;52.370;9.748;2022-10-22T06:15:44;12.03;;;8.93;;
8887;SDS011;4480;52.370;9.748;2022-10-22T06:18:11;12.50;;;8.27;;
8887;SDS011;4480;52.370;9.748;2022-10-22T06:20:38;13.87;;;9.37;;
8887;SDS011;4480;52.370;9.748;2022-10-22T06:23:07;12.13;;;9.40;;
8887;SDS011;4480;52.370;9.748;2022-10-22T06:25:33;11.43;;;8.70;;
8887;SDS011;4480;52.370;9.748;2022-10-22T06:28:02;11.70;;;10.47;;
8887;SDS011;4480;52.370;9.748;2022-10-22T06:30:28;15.37;;;11.30;;
8887;SDS011;4480;52.370;9.748;2022-10-22T06:32:55;12.47;;;9.10;;
8887;SDS011;4480;52.370;9.748;2022-10-22T06:35:22;14.10;;;9.80;;
8887;SDS011;4480;52.370;9.748;2022-10-22T06:37:49;16.60;;;10.73;;
8887;SDS011;4480;52.370;9.748;2022-10-22T06:40:15;10.87;;;8.83;;
8887;SDS011;4480;52.370;9.748;2022-10-22T06:42:43;11.83;;;10.30;;
8887;SDS011;4480;52.370;9.748;2022-10-22T06:45:11;12.70;;;9.80;;
8887;SDS011;4480;52.370;9.748;2022-10-22T06:47:38;13.50;;;9.80;;
8887;SDS011;4480;52.370;9.748;2022-10-22T06:50:05;11.67;;;9.27;;
8887;SDS011;4480;52.370;9.748;2022-10-22T06:52:32;12.73;;;9.90;;
8887;SDS011;4480;52.370;9.748;2022-10-22T06:54:59;13.67;;;9.30;;
8887;SDS011;4480;52.370;9.748;2022-10-22T06:57:26;11.60;;;9.90;;
8887;SDS011;4480;52.370;9.748;2022-10-22T06:59:52;16.70;;;9.93;;
8887;SDS011;4480;52.370;9.748;2022-10-22T07:02:20;12.70;;;10.07;;
8887;SDS011;4480;52.370;9.748;2022-10-22T07:04:47;12.17;;;9.60;;
8887;SDS011;4480;52.370;9.748;2022-10-22T07:07:14;12.40;;;8.93;;
8887;SDS011;4480;52.370;9.748;2022-10-22T07:09:41;9.70;;;8.70;;
8887;SDS011;4480;52.370;9.748;2022-10-22T07:12:09;9.93;;;8.67;;
8887;SDS011;4480;52.370;9.748;2022-10-22T07:14:36;13.67;;;10.20;;
8887;SDS011;4480;52.370;9.748;2022-10-22T07:17:03;14.07;;;9.73;;
8887;SDS011;4480;52.370;9.748;2022-10-22T07:19:31;9.30;;;8.30;;
8887;SDS011;4480;52.370;9.748;2022-10-22T07:21:58;11.70;;;8.87;;
8887;SDS011;4480;52.370;9.748;2022-10-22T07:24:25;10.57;;;8.50;;
8887;SDS011;4480;52.370;9.748;2022-10-22T07:26:52;11.30;;;8.70;;
8887;SDS011;4480;52.370;9.748;2022-10-22T07:29:19;12.83;;;11.53;;
8887;SDS011;4480;52.370;9.748;2022-10-22T07:31:45;11.00;;;9.00;;
8887;SDS011;4480;52.370;9.748;2022-10-22T07:34:12;11.00;;;8.20;;
8887;SDS011;4480;52.370;9.748;2022-10-22T07:36:41;11.17;;;9.17;;
8887;SDS011;4480;52.370;9.748;2022-10-22T07:39:07;9.67;;;8.67;;
8887;SDS011;4480;52.370;9.748;2022-10-22T07:41:34;11.23;;;8.53;;
8887;SDS011;4480;52.370;9.748;2022-10-22T07:44:01;8.43;;;7.63;;
8887;SDS011;4480;52.370;9.748;2022-10-22T07:46:27;8.23;;;6.40;;
8887;SDS011;4480;52.370;9.748;2022-10-22T07:48:54;8.47;;;7.30;;
8887;SDS011;4480;52.370;9.748;2022-10-22T07:51:21;9.10;;;7.57;;
8887;SDS011;4480;52.370;9.748;2022-10-22T07:53:49;8.13;;;7.30;;
8887;SDS011;4480;52.370;9.748;2022-10-22T07:56:16;8.07;;;7.27;;
8887;SDS011;4480;52.370;9.748;2022-10-22T07:58:43;6.50;;;5.90;;
8887;SDS011;4480;52.370;9.748;2022-10-22T08:01:09;11.40;;;7.17;;
8887;SDS011;4480;52.370;9.748;2022-10-22T08:03:36;7.07;;;5.90;;
8887;SDS011;4480;52.370;9.748;2022-10-22T08:06:03;7.37;;;6.40;;
8887;SDS011;4480;52.370;9.748;2022-10-22T08:08:30;7.90;;;6.97;;
8887;SDS011;4480;52.370;9.748;2022-10-22T08:10:59;5.83;;;5.30;;
8887;SDS011;4480;52.370;9.748;2022-10-22T08:13:26;5.63;;;4.93;;
8887;SDS011;4480;52.370;9.748;2022-10-22T08:15:54;6.47;;;4.83;;
8887;SDS011;4480;52.370;9.748;2022-10-22T08:18:22;4.97;;;4.50;;
8887;SDS011;4480;52.370;9.748;2022-10-22T08:20:48;5.33;;;4.23;;
8887;SDS011;4480;52.370;9.748;2022-10-22T08:23:16;6.47;;;5.20;;
8887;SDS011;4480;52.370;9.748;2022-10-22T08:25:43;5.47;;;4.97;;
8887;SDS011;4480;52.370;9.748;2022-10-22T08:28:11;6.93;;;4.97;;
8887;SDS011;4480;52.370;9.748;2022-10-22T08:30:38;7.23;;;5.70;;
8887;SDS011;4480;52.370;9.748;2022-10-22T08:33:05;5.97;;;4.53;;
8887;SDS011;4480;52.370;9.748;2022-10-22T08:35:32;5.97;;;5.37;;
8887;SDS011;4480;52.370;9.748;2022-10-22T08:37:59;5.80;;;5.10;;
8887;SDS011;4480;52.370;9.748;2022-10-22T08:40:27;5.90;;;5.30;;
8887;SDS011;4480;52.370;9.748;2022-10-22T08:49:18;4.97;;;4.10;;
8887;SDS011;4480;52.370;9.748;2022-10-22T08:51:47;5.63;;;5.03;;
8887;SDS011;4480;52.370;9.748;2022-10-22T08:54:17;4.97;;;3.60;;
8887;SDS011;4480;52.370;9.748;2022-10-22T08:56:52;4.70;;;4.27;;
8887;SDS011;4480;52.370;9.748;2022-10-22T08:59:36;5.17;;;4.13;;
8887;SDS011;4480;52.370;9.748;2022-10-22T09:02:13;3.97;;;3.63;;
8887;SDS011;4480;52.370;9.748;2022-10-22T09:04:49;4.80;;;4.30;;
8887;SDS011;4480;52.370;9.748;2022-10-22T09:07:26;5.90;;;4.73;;
8887;SDS011;4480;52.370;9.748;2022-10-22T09:09:52;4.97;;;4.27;;
8887;SDS011;4480;52.370;9.748;2022-10-22T09:12:23;6.83;;;5.10;;
8887;SDS011;4480;52.370;9.748;2022-10-22T09:14:52;7.43;;;4.70;;
8887;SDS011;4480;52.370;9.748;2022-10-22T09:17:24;4.67;;;4.03;;
8887;SDS011;4480;52.370;9.748;2022-10-22T09:19:59;3.83;;;3.43;;
8887;SDS011;4480;52.370;9.748;2022-10-22T09:22:33;5.83;;;3.67;;
8887;SDS011;4480;52.370;9.748;2022-10-22T09:25:10;5.53;;;3.60;;
8887;SDS011;4480;52.370;9.748;2022-10-22T09:27:44;5.40;;;3.97;;
8887;SDS011;4480;52.370;9.748;2022-10-22T09:30:12;7.90;;;3.50;;
8887;SDS011;4480;52.370;9.748;2022-10-22T09:32:43;4.10;;;2.90;;
8887;SDS011;4480;52.370;9.748;2022-10-22T09:35:11;3.90;;;3.30;;
8887;SDS011;4480;52.370;9.748;2022-10-22T09:37:45;3.60;;;2.73;;
8887;SDS011;4480;52.370;9.748;2022-10-22T09:40:13;3.60;;;3.27;;
8887;SDS011;4480;52.370;9.748;2022-10-22T09:42:41;4.00;;;2.50;;
8887;SDS011;4480;52.370;9.748;2022-10-22T09:45:14;5.20;;;3.07;;
8887;SDS011;4480;52.370;9.748;2022-10-22T09:47:45;5.27;;;3.10;;
8887;SDS011;4480;52.370;9.748;2022-10-22T09:50:25;3.40;;;3.00;;
8887;SDS011;4480;52.370;9.748;2022-10-22T09:52:53;5.30;;;3.20;;
8887;SDS011;4480;52.370;9.748;2022-10-22T09:55:24;12.13;;;3.87;;
8887;SDS011;4480;52.370;9.748;2022-10-22T09:57:52;5.37;;;2.80;;
8887;SDS011;4480;52.370;9.748;2022-10-22T10:00:20;4.90;;;3.00;;
8887;SDS011;4480;52.370;9.748;2022-10-22T10:02:52;4.57;;;2.97;;
8887;SDS011;4480;52.370;9.748;2022-10-22T10:05:24;3.70;;;2.37;;
8887;SDS011;4480;52.370;9.748;2022-10-22T10:07:53;4.93;;;2.70;;
8887;SDS011;4480;52.370;9.748;2022-10-22T10:10:24;3.10;;;2.80;;
8887;SDS011;4480;52.370;9.748;2022-10-22T10:12:59;4.97;;;3.07;;
8887;SDS011;4480;52.370;9.748;2022-10-22T10:15:36;5.00;;;2.50;;
8887;SDS011;4480;52.370;9.748;2022-10-22T10:18:15;5.20;;;3.10;;
8887;SDS011;4480;52.370;9.748;2022-10-22T10:20:52;5.23;;;3.07;;
8887;SDS011;4480;52.370;9.748;2022-10-22T10:23:26;5.37;;;2.80;;
8887;SDS011;4480;52.370;9.748;2022-10-22T10:26:00;5.40;;;2.70;;
8887;SDS011;4480;52.370;9.748;2022-10-22T10:28:35;6.37;;;3.20;;
8887;SDS011;4480;52.370;9.748;2022-10-22T10:31:14;3.30;;;3.00;;
8887;SDS011;4480;52.370;9.748;2022-10-22T10:33:48;3.00;;;2.43;;
8887;SDS011;4480;52.370;9.748;2022-10-22T10:36:24;3.63;;;2.57;;
8887;SDS011;4480;52.370;9.748;2022-10-22T10:39:02;3.80;;;2.63;;
8887;SDS011;4480;52.370;9.748;2022-10-22T10:41:37;3.70;;;3.00;;
8887;SDS011;4480;52.370;9.748;2022-10-22T10:44:20;7.17;;;3.17;;
8887;SDS011;4480;52.370;9.748;2022-10-22T10:47:12;3.60;;;2.73;;
8887;SDS011;4480;52.370;9.748;2022-10-22T10:49:53;5.30;;;2.53;;
8887;SDS011;4480;52.370;9.748;2022-10-22T10:52:25;3.30;;;3.00;;
8887;SDS011;4480;52.370;9.748;2022-10-22T10:55:01;8.07;;;3.57;;
8887;SDS011;4480;52.370;9.748;2022-10-22T10:57:38;6.00;;;4.00;;
8887;SDS011;4480;52.370;9.748;2022-10-22T11:00:13;7.70;;;3.27;;
8887;SDS011;4480;52.370;9.748;2022-10-22T11:02:52;5.80;;;3.50;;
8887;SDS011;4480;52.370;9.748;2022-10-22T11:06:02;3.73;;;2.53;;
8887;SDS011;4480;52.370;9.748;2022-10-22T11:08:33;4.00;;;2.93;;
8887;SDS011;4480;52.370;9.748;2022-10-22T11:11:02;6.80;;;3.43;;
8887;SDS011;4480;52.370;9.748;2022-10-22T11:13:34;9.70;;;2.97;;
8887;SDS011;4480;52.370;9.748;2022-10-22T11:16:05;4.40;;;3.07;;
8887;SDS011;4480;52.370;9.748;2022-10-22T11:18:37;4.23;;;3.30;;
8887;SDS011;4480;52.370;9.748;2022-10-22T11:21:15;4.33;;;2.77;;
8887;SDS011;4480;52.370;9.748;2022-10-22T11:23:47;5.50;;;3.00;;
8887;SDS011;4480;52.370;9.748;2022-10-22T11:26:23;3.10;;;2.60;;
8887;SDS011;4480;52.370;9.748;2022-10-22T11:28:55;3.33;;;3.03;;
8887;SDS011;4480;52.370;9.748;2022-10-22T11:31:24;3.97;;;3.27;;
8887;SDS011;4480;52.370;9.748;2022-10-22T11:33:53;4.90;;;2.70;;
8887;SDS011;4480;52.370;9.748;2022-10-22T11:36:28;4.57;;;3.27;;
8887;SDS011;4480;52.370;9.748;2022-10-22T11:38:55;7.43;;;2.53;;
8887;SDS011;4480;52.370;9.748;2022-10-22T11:41:23;5.83;;;2.57;;
8887;SDS011;4480;52.370;9.748;2022-10-22T11:44:00;3.50;;;2.30;;
8887;SDS011;4480;52.370;9.748;2022-10-22T11:46:37;5.23;;;2.73;;
8887;SDS011;4480;52.370;9.748;2022-10-22T11:49:16;8.17;;;2.70;;
8887;SDS011;4480;52.370;9.748;2022-10-22T11:51:50;3.00;;;2.27;;
8887;SDS011;4480;52.370;9.748;2022-10-22T11:54:36;4.53;;;2.57;;
8887;SDS011;4480;52.370;9.748;2022-10-22T11:57:14;4.20;;;2.53;;
8887;SDS011;4480;52.370;9.748;2022-10-22T11:59:46;3.23;;;2.37;;
8887;SDS011;4480;52.370;9.748;2022-10-22T12:02:22;4.20;;;2.70;;
8887;SDS011;4480;52.370;9.748;2022-10-22T12:05:32;4.13;;;1.93;;
8887;SDS011;4480;52.370;9.748;2022-10-22T12:08:03;3.70;;;2.47;;
8887;SDS011;4480;52.370;9.748;2022-10-22T12:10:57;4.03;;;2.37;;
8887;SDS011;4480;52.370;9.748;2022-10-22T12:13:29;6.27;;;2.73;;
8887;SDS011;4480;52.370;9.748;2022-10-22T12:16:01;7.07;;;2.93;;
8887;SDS011;4480;52.370;9.748;2022-10-22T12:18:32;5.43;;;2.73;;
8887;SDS011;4480;52.370;9.748;2022-10-22T12:21:04;3.03;;;2.10;;
8887;SDS011;4480;52.370;9.748;2022-10-22T12:23:33;7.47;;;2.20;;
8887;SDS011;4480;52.370;9.748;2022-10-22T12:26:02;6.40;;;1.90;;
8887;SDS011;4480;52.370;9.748;2022-10-22T12:28:35;4.33;;;2.13;;
8887;SDS011;4480;52.370;9.748;2022-10-22T12:31:03;6.23;;;2.57;;
8887;SDS011;4480;52.370;9.748;2022-10-22T12:33:30;4.37;;;2.17;;
8887;SDS011;4480;52.370;9.748;2022-10-22T12:35:57;4.70;;;1.93;;
8887;SDS011;4480;52.370;9.748;2022-10-22T12:38:28;5.47;;;2.40;;
8887;SDS011;4480;52.370;9.748;2022-10-22T12:40:56;7.27;;;2.50;;
8887;SDS011;4480;52.370;9.748;2022-10-22T12:43:24;4.87;;;2.37;;
8887;SDS011;4480;52.370;9.748;2022-10-22T12:45:52;7.20;;;3.37;;
8887;SDS011;4480;52.370;9.748;2022-10-22T12:48:20;8.50;;;2.20;;
8887;SDS011;4480;52.370;9.748;2022-10-22T12:50:50;5.30;;;2.00;;
8887;SDS011;4480;52.370;9.748;2022-10-22T12:53:19;4.33;;;2.43;;
8887;SDS011;4480;52.370;9.748;2022-10-22T12:55:50;6.00;;;2.10;;
8887;SDS011;4480;52.370;9.748;2022-10-22T12:58:20;7.00;;;2.70;;
8887;SDS011;4480;52.370;9.748;2022-10-22T13:00:52;4.50;;;2.57;;
8887;SDS011;4480;52.370;9.748;2022-10-22T13:03:25;4.40;;;2.43;;
8887;SDS011;4480;52.370;9.748;2022-10-22T13:05:54;5.90;;;2.70;;
8887;SDS011;4480;52.370;9.748;2022-10-22T13:08:21;9.33;;;2.73;;
8887;SDS011;4480;52.370;9.748;2022-10-22T13:10:52;9.97;;;2.57;;
8887;SDS011;4480;52.370;9.748;2022-10-22T13:13:30;4.60;;;2.20;;
8887;SDS011;4480;52.370;9.748;2022-10-22T13:16:11;4.07;;;2.37;;
8887;SDS011;4480;52.370;9.748;2022-10-22T13:18:39;5.00;;;2.60;;
8887;SDS011;4480;52.370;9.748;2022-10-22T13:21:19;5.27;;;3.10;;
8887;SDS011;4480;52.370;9.748;2022-10-22T13:23:51;7.17;;;2.63;;
8887;SDS011;4480;52.370;9.748;2022-10-22T13:26:19;4.63;;;2.70;;
8887;SDS011;4480;52.370;9.748;2022-10-22T13:28:50;6.83;;;3.20;;
8887;SDS011;4480;52.370;9.748;2022-10-22T13:31:19;7.10;;;2.77;;
8887;SDS011;4480;52.370;9.748;2022-10-22T13:33:50;6.97;;;3.27;;
8887;SDS011;4480;52.370;9.748;2022-10-22T13:36:19;4.90;;;2.90;;
8887;SDS011;4480;52.370;9.748;2022-10-22T13:38:47;4.57;;;3.60;;
8887;SDS011;4480;52.370;9.748;2022-10-22T13:41:17;6.90;;;3.47;;
8887;SDS011;4480;52.370;9.748;2022-10-22T13:43:46;6.80;;;3.90;;
8887;SDS011;4480;52.370;9.748;2022-10-22T13:46:14;6.57;;;4.40;;
8887;SDS011;4480;52.370;9.748;2022-10-22T13:48:41;4.37;;;3.73;;
8887;SDS011;4480;52.370;9.748;2022-10-22T13:51:11;6.80;;;3.60;;
8887;SDS011;4480;52.370;9.748;2022-10-22T13:53:39;10.43;;;3.70;;
8887;SDS011;4480;52.370;9.748;2022-10-22T13:56:09;9.77;;;4.00;;
8887;SDS011;4480;52.370;9.748;2022-10-22T13:58:39;8.00;;;4.80;;
8887;SDS011;4480;52.370;9.748;2022-10-22T14:01:08;8.53;;;4.83;;
8887;SDS011;4480;52.370;9.748;2022-10-22T14:03:44;6.17;;;3.83;;
8887;SDS011;4480;52.370;9.748;2022-10-22T14:06:12;5.50;;;4.80;;
8887;SDS011;4480;52.370;9.748;2022-10-22T14:08:40;8.63;;;3.30;;
8887;SDS011;4480;52.370;9.748;2022-10-22T14:11:08;6.20;;;2.90;;
8887;SDS011;4480;52.370;9.748;2022-10-22T14:13:36;6.33;;;3.43;;
8887;SDS011;4480;52.370;9.748;2022-10-22T14:16:03;6.03;;;2.87;;
8887;SDS011;4480;52.370;9.748;2022-10-22T14:18:33;4.20;;;3.17;;
8887;SDS011;4480;52.370;9.748;2022-10-22T14:21:01;4.60;;;2.80;;
8887;SDS011;4480;52.370;9.748;2022-10-22T14:23:31;5.67;;;3.47;;
8887;SDS011;4480;52.370;9.748;2022-10-22T14:26:00;7.03;;;3.27;;
8887;SDS011;4480;52.370;9.748;2022-10-22T14:28:28;7.80;;;3.07;;
8887;SDS011;4480;52.370;9.748;2022-10-22T14:30:55;10.87;;;3.70;;
8887;SDS011;4480;52.370;9.748;2022-10-22T14:33:23;5.57;;;3.40;;
8887;SDS011;4480;52.370;9.748;2022-10-22T14:35:52;7.83;;;3.27;;
8887;SDS011;4480;52.370;9.748;2022-10-22T14:38:19;5.00;;;3.70;;
8887;SDS011;4480;52.370;9.748;2022-10-22T14:40:46;8.00;;;3.53;;
8887;SDS011;4480;52.370;9.748;2022-10-22T14:43:15;6.60;;;3.43;;
8887;SDS011;4480;52.370;9.748;2022-10-22T14:45:46;3.90;;;3.10;;
8887;SDS011;4480;52.370;9.748;2022-10-22T14:48:13;8.77;;;4.17;;
8887;SDS011;4480;52.370;9.748;2022-10-22T14:50:40;6.33;;;3.40;;
8887;SDS011;4480;52.370;9.748;2022-10-22T14:53:09;5.80;;;3.00;;
8887;SDS011;4480;52.370;9.748;2022-10-22T14:55:37;6.20;;;3.53;;
8887;SDS011;4480;52.370;9.748;2022-10-22T14:58:04;4.17;;;3.77;;
8887;SDS011;4480;52.370;9.748;2022-10-22T15:00:31;5.33;;;3.40;;
8887;SDS011;4480;52.370;9.748;2022-10-22T15:03:00;8.50;;;3.20;;
8887;SDS011;4480;52.370;9.748;2022-10-22T15:05:27;3.73;;;2.87;;
8887;SDS011;4480;52.370;9.748;2022-10-22T15:07:54;6.30;;;4.10;;
8887;SDS011;4480;52.370;9.748;2022-10-22T15:10:24;11.23;;;3.27;;
8887;SDS011;4480;52.370;9.748;2022-10-22T15:12:51;5.67;;;3.43;;
8887;SDS011;4480;52.370;9.748;2022-10-22T15:15:18;6.20;;;3.20;;
8887;SDS011;4480;52.370;9.748;2022-10-22T15:17:44;6.83;;;2.80;;
8887;SDS011;4480;52.370;9.748;2022-10-22T15:20:11;7.47;;;2.90;;
8887;SDS011;4480;52.370;9.748;2022-10-22T15:22:38;6.07;;;3.30;;
8887;SDS011;4480;52.370;9.748;2022-10-22T15:25:05;5.23;;;3.00;;
8887;SDS011;4480;52.370;9.748;2022-10-22T15:27:36;4.23;;;3.03;;
8887;SDS011;4480;52.370;9.748;2022-10-22T15:30:03;5.10;;;2.73;;
8887;SDS011;4480;52.370;9.748;2022-10-22T15:32:32;2.80;;;2.13;;
8887;SDS011;4480;52.370;9.748;2022-10-22T15:34:59;6.90;;;2.80;;